Time;durP1;ratioP1;P1;durP2;ratioP2;P2;SDS_P1;SDS_P2;PMS_P1;PMS_P2;Temp;Humidity;BMP_temperature;BMP_pressure;BME280_temperature;BME280_humidity;BME280_pressure;Samples;Min_cycle;Max_cycle;Signal;HPM_P1;HPM_P2
2022/01/29 00:02:19;;;;;;;6.63;3.78;;;;;;;;;;10511914;28;20209;-69
2022/01/29 00:07:20;;;;;;;5.50;2.80;;;;;;;;;;10510929;28;20645;-70
2022/01/29 00:12:20;;;;;;;6.87;3.27;;;;;;;;;;10510948;28;20036;-74
2022/01/29 00:17:20;;;;;;;4.43;3.13;;;;;;;;;;10511778;28;20536;-71
2022/01/29 00:22:21;;;;;;;5.50;3.45;;;;;;;;;;10563042;28;20055;-70
2022/01/29 00:27:22;;;;;;;6.75;3.72;;;;;;;;;;10512952;28;20040;-73
2022/01/29 00:32:23;;;;;;;8.43;3.55;;;;;;;;;;10513442;28;20035;-74
2022/01/29 00:37:23;;;;;;;6.43;3.83;;;;;;;;;;10530863;28;20116;-70
2022/01/29 00:42:24;;;;;;;6.80;3.78;;;;;;;;;;10480790;28;20182;-71
2022/01/29 00:47:24;;;;;;;5.10;3.45;;;;;;;;;;10470034;28;20036;-71
2022/01/29 00:52:24;;;;;;;7.82;4.47;;;;;;;;;;10487998;28;20041;-70
2022/01/29 00:57:28;;;;;;;8.95;4.25;;;;;;;;;;10470381;28;20056;-70
2022/01/29 01:02:28;;;;;;;9.23;4.55;;;;;;;;;;10473839;28;20036;-72
2022/01/29 01:07:29;;;;;;;7.25;4.00;;;;;;;;;;10477831;28;20032;-72
2022/01/29 01:12:29;;;;;;;6.57;4.60;;;;;;;;;;10495592;28;20044;-71
2022/01/29 01:17:30;;;;;;;8.77;4.15;;;;;;;;;;10493772;28;20032;-71
2022/01/29 01:22:30;;;;;;;7.72;4.55;;;;;;;;;;10529678;28;20528;-71
2022/01/29 01:27:30;;;;;;;11.45;5.60;;;;;;;;;;10535407;28;20036;-71
2022/01/29 01:32:31;;;;;;;13.80;5.32;;;;;;;;;;10535063;28;20122;-72
2022/01/29 01:37:37;;;;;;;8.52;4.90;;;;;;;;;;10534971;28;20036;-71
2022/01/29 01:42:37;;;;;;;12.65;5.93;;;;;;;;;;10534511;28;20028;-72
2022/01/29 01:47:38;;;;;;;6.77;4.27;;;;;;;;;;10517667;28;20485;-70
2022/01/29 01:52:38;;;;;;;12.20;4.97;;;;;;;;;;10534994;28;20262;-71
2022/01/29 01:57:38;;;;;;;13.27;5.55;;;;;;;;;;10534400;28;20266;-72
2022/01/29 02:02:39;;;;;;;11.32;5.95;;;;;;;;;;10533862;28;20042;-71
2022/01/29 02:07:39;;;;;;;9.38;5.05;;;;;;;;;;10535082;28;20078;-72
2022/01/29 02:12:50;;;;;;;6.47;5.10;;;;;;;;;;10532662;28;20127;-71
2022/01/29 02:17:51;;;;;;;9.18;4.45;;;;;;;;;;10517105;28;20036;-75
2022/01/29 02:22:52;;;;;;;9.43;5.55;;;;;;;;;;10516374;28;20056;-70
2022/01/29 02:27:52;;;;;;;8.15;5.28;;;;;;;;;;10516360;28;20039;-71
2022/01/29 02:32:52;;;;;;;8.68;5.45;;;;;;;;;;10533129;28;20032;-70
2022/01/29 02:37:53;;;;;;;9.40;5.75;;;;;;;;;;10533945;28;20055;-71
2022/01/29 02:42:55;;;;;;;8.18;4.85;;;;;;;;;;10515255;28;20410;-71
2022/01/29 02:47:55;;;;;;;8.57;5.43;;;;;;;;;;10532212;28;20039;-76
2022/01/29 02:52:56;;;;;;;10.55;5.88;;;;;;;;;;10531844;28;20385;-73
2022/01/29 02:57:56;;;;;;;10.43;4.75;;;;;;;;;;10532929;28;20043;-71
2022/01/29 03:02:57;;;;;;;15.10;5.90;;;;;;;;;;10514804;28;20130;-72
2022/01/29 03:07:57;;;;;;;10.77;5.20;;;;;;;;;;10514673;28;20040;-73
2022/01/29 03:12:57;;;;;;;11.00;5.27;;;;;;;;;;10532361;28;20024;-70
2022/01/29 03:17:58;;;;;;;10.15;5.10;;;;;;;;;;10531162;28;20258;-71
2022/01/29 03:22:59;;;;;;;14.73;5.33;;;;;;;;;;10532253;28;20079;-77
2022/01/29 03:27:59;;;;;;;8.57;4.97;;;;;;;;;;10530364;28;20498;-72
2022/01/29 03:32:59;;;;;;;8.50;4.83;;;;;;;;;;10530600;28;20036;-70
2022/01/29 03:38:00;;;;;;;7.13;4.65;;;;;;;;;;10530327;28;20042;-72
2022/01/29 03:43:07;;;;;;;11.17;4.87;;;;;;;;;;10530190;28;20063;-72
2022/01/29 03:48:07;;;;;;;10.00;4.22;;;;;;;;;;10529883;28;20028;-72
2022/01/29 03:53:08;;;;;;;6.88;3.40;;;;;;;;;;10512988;28;20024;-71
2022/01/29 03:58:08;;;;;;;7.53;4.45;;;;;;;;;;10529433;28;20028;-71
2022/01/29 04:03:08;;;;;;;10.65;4.75;;;;;;;;;;10529763;28;20063;-72
2022/01/29 04:08:15;;;;;;;6.97;4.67;;;;;;;;;;10529362;28;20024;-71
2022/01/29 04:13:20;;;;;;;5.60;4.00;;;;;;;;;;10529317;28;20036;-72
2022/01/29 04:18:20;;;;;;;7.28;5.03;;;;;;;;;;10529314;28;20562;-74
2022/01/29 04:23:20;;;;;;;11.40;5.05;;;;;;;;;;10488514;28;20078;-72
2022/01/29 04:28:27;;;;;;;7.68;5.22;;;;;;;;;;10470497;28;20563;-72
2022/01/29 04:33:30;;;;;;;7.85;4.95;;;;;;;;;;10470221;28;20120;-72
2022/01/29 04:38:31;;;;;;;6.97;4.50;;;;;;;;;;10493133;28;20607;-72
2022/01/29 04:43:32;;;;;;;8.23;2.92;;;;;;;;;;10478587;28;20070;-72
2022/01/29 04:48:32;;;;;;;5.30;2.92;;;;;;;;;;10478003;28;20037;-72
2022/01/29 04:53:32;;;;;;;7.20;4.57;;;;;;;;;;10495376;28;20409;-71
2022/01/29 04:58:33;;;;;;;6.20;3.83;;;;;;;;;;10494915;28;20509;-73
2022/01/29 05:03:34;;;;;;;8.02;4.10;;;;;;;;;;10494478;28;20033;-71
2022/01/29 05:08:34;;;;;;;7.95;4.53;;;;;;;;;;10496262;28;20510;-70
2022/01/29 05:13:38;;;;;;;8.47;4.27;;;;;;;;;;10477163;28;20076;-71
2022/01/29 05:29:16;;;;;;;10.15;5.00;;;;;;;;;;10536285;28;20338;-70
2022/01/29 05:34:18;;;;;;;9.52;6.20;;;;;;;;;;10514560;28;20040;-70
2022/01/29 05:39:18;;;;;;;7.70;5.47;;;;;;;;;;10499019;28;20402;-71
2022/01/29 05:44:19;;;;;;;15.23;6.30;;;;;;;;;;10570300;28;20036;-71
2022/01/29 05:49:19;;;;;;;15.35;5.95;;;;;;;;;;10532998;28;20035;-71
2022/01/29 05:54:19;;;;;;;11.18;7.05;;;;;;;;;;10537517;28;20030;-72
2022/01/29 05:59:20;;;;;;;13.52;6.13;;;;;;;;;;10577799;28;20043;-70
2022/01/29 06:04:20;;;;;;;10.77;5.65;;;;;;;;;;10548174;28;20100;-72
2022/01/29 06:09:20;;;;;;;8.77;5.88;;;;;;;;;;10534905;28;20493;-72
2022/01/29 06:14:20;;;;;;;8.30;5.43;;;;;;;;;;10533693;28;20112;-72
2022/01/29 06:19:21;;;;;;;9.50;5.45;;;;;;;;;;10551474;28;20043;-73
2022/01/29 06:24:22;;;;;;;10.05;5.68;;;;;;;;;;10576912;28;20050;-71
2022/01/29 06:29:22;;;;;;;14.15;6.80;;;;;;;;;;10574168;27;20515;-72
2022/01/29 06:34:22;;;;;;;14.07;7.05;;;;;;;;;;10558253;28;20031;-73
2022/01/29 06:39:23;;;;;;;10.65;5.90;;;;;;;;;;10555818;28;20122;-73
2022/01/29 06:44:23;;;;;;;8.82;5.32;;;;;;;;;;10558432;28;20039;-73
2022/01/29 06:49:23;;;;;;;11.55;6.55;;;;;;;;;;10575610;28;20039;-73
2022/01/29 06:54:24;;;;;;;12.75;6.95;;;;;;;;;;10557393;28;20027;-72
2022/01/29 06:59:24;;;;;;;9.80;4.90;;;;;;;;;;10556376;28;20401;-74
2022/01/29 07:04:24;;;;;;;10.37;5.80;;;;;;;;;;10556794;28;20268;-73
2022/01/29 07:09:25;;;;;;;9.52;6.20;;;;;;;;;;10556851;28;20515;-73
2022/01/29 07:14:25;;;;;;;9.05;6.00;;;;;;;;;;10571918;27;20039;-76
2022/01/29 07:19:25;;;;;;;8.82;5.30;;;;;;;;;;10547406;28;20056;-72
2022/01/29 07:24:26;;;;;;;11.05;6.63;;;;;;;;;;10552950;28;20035;-73
2022/01/29 07:29:26;;;;;;;8.88;5.78;;;;;;;;;;10553768;28;20031;-76
2022/01/29 07:34:26;;;;;;;10.20;6.67;;;;;;;;;;10571593;28;20483;-72
2022/01/29 07:39:27;;;;;;;14.55;6.35;;;;;;;;;;10579459;28;20778;-75
2022/01/29 07:44:27;;;;;;;9.93;6.90;;;;;;;;;;10554740;28;20042;-71
2022/01/29 07:49:27;;;;;;;11.97;6.33;;;;;;;;;;10545453;28;20396;-72
2022/01/29 07:54:28;;;;;;;10.63;5.70;;;;;;;;;;10512316;28;20024;-76
2022/01/29 07:59:28;;;;;;;9.13;6.15;;;;;;;;;;10530429;28;20505;-75
2022/01/29 08:04:28;;;;;;;12.80;6.40;;;;;;;;;;10512324;28;20040;-70
2022/01/29 08:09:29;;;;;;;7.78;5.00;;;;;;;;;;10540493;28;20410;-75
2022/01/29 08:14:30;;;;;;;10.52;6.95;;;;;;;;;;10543925;28;20028;-74
2022/01/29 08:19:30;;;;;;;8.98;6.10;;;;;;;;;;10514021;28;20519;-71
2022/01/29 08:24:31;;;;;;;21.52;7.07;;;;;;;;;;10527646;28;20028;-70
2022/01/29 08:29:31;;;;;;;9.52;5.63;;;;;;;;;;10526923;28;20512;-71
2022/01/29 08:34:31;;;;;;;13.45;6.15;;;;;;;;;;10510831;28;20028;-73
2022/01/29 08:39:32;;;;;;;12.90;6.18;;;;;;;;;;10549052;28;20512;-72
2022/01/29 08:44:32;;;;;;;8.00;5.03;;;;;;;;;;10570982;28;20039;-72
2022/01/29 08:49:33;;;;;;;11.43;6.80;;;;;;;;;;10552360;28;20503;-72
2022/01/29 08:54:33;;;;;;;11.13;6.27;;;;;;;;;;10551745;28;20035;-74
2022/01/29 08:59:34;;;;;;;15.32;6.28;;;;;;;;;;10535232;28;20067;-76
2022/01/29 09:04:34;;;;;;;18.27;6.30;;;;;;;;;;10553083;28;20039;-77
2022/01/29 09:09:35;;;;;;;11.85;6.03;;;;;;;;;;10552603;28;20307;-75
2022/01/29 09:14:35;;;;;;;10.32;6.35;;;;;;;;;;10553601;28;20042;-75
2022/01/29 09:19:36;;;;;;;14.33;6.53;;;;;;;;;;10554064;28;20453;-74
2022/01/29 09:24:36;;;;;;;12.90;7.33;;;;;;;;;;10558933;28;20527;-73
2022/01/29 09:29:37;;;;;;;11.02;6.63;;;;;;;;;;10559468;28;20438;-73
2022/01/29 09:34:37;;;;;;;9.50;6.17;;;;;;;;;;10577052;28;20126;-72
2022/01/29 09:39:38;;;;;;;12.93;6.28;;;;;;;;;;10558667;28;20384;-72
2022/01/29 09:44:40;;;;;;;13.25;7.20;;;;;;;;;;10558284;28;20027;-71
2022/01/29 09:49:41;;;;;;;13.10;6.85;;;;;;;;;;10559163;28;20039;-72
2022/01/29 09:54:43;;;;;;;14.18;6.63;;;;;;;;;;10577128;28;20504;-72
2022/01/29 09:59:43;;;;;;;18.55;7.47;;;;;;;;;;10541549;28;20081;-74
2022/01/29 10:04:44;;;;;;;10.95;5.78;;;;;;;;;;10557891;28;20561;-71
2022/01/29 10:09:44;;;;;;;14.75;7.63;;;;;;;;;;10576178;28;20103;-72
2022/01/29 10:15:05;;;;;;;15.32;7.22;;;;;;;;;;10557849;28;20027;-71
2022/01/29 10:20:13;;;;;;;13.38;6.80;;;;;;;;;;10556856;28;20497;-76
2022/01/29 10:25:16;;;;;;;13.88;7.53;;;;;;;;;;10557559;28;20027;-75
2022/01/29 10:30:16;;;;;;;18.25;7.20;;;;;;;;;;10557496;28;20032;-73
2022/01/29 10:35:16;;;;;;;9.10;6.53;;;;;;;;;;10537910;28;20077;-76
2022/01/29 10:40:23;;;;;;;9.75;6.20;;;;;;;;;;10515213;28;20036;-71
2022/01/29 10:45:35;;;;;;;14.85;6.35;;;;;;;;;;10514816;28;20062;-77
2022/01/29 10:50:36;;;;;;;12.75;7.57;;;;;;;;;;10541132;28;20541;-72
2022/01/29 10:55:59;;;;;;;12.73;7.05;;;;;;;;;;10515253;28;20032;-72
2022/01/29 11:01:15;;;;;;;11.90;7.13;;;;;;;;;;10513941;28;20028;-71
2022/01/29 11:06:18;;;;;;;16.10;7.57;;;;;;;;;;10513975;28;20088;-76
2022/01/29 11:11:18;;;;;;;12.52;7.28;;;;;;;;;;10555073;28;20536;-72
2022/01/29 11:16:21;;;;;;;16.03;7.80;;;;;;;;;;10556128;28;20058;-72
2022/01/29 11:21:23;;;;;;;15.80;6.85;;;;;;;;;;10555215;28;20292;-72
2022/01/29 11:26:23;;;;;;;15.50;7.05;;;;;;;;;;10554511;28;20483;-75
2022/01/29 11:31:28;;;;;;;25.38;8.57;;;;;;;;;;10572697;28;20023;-77
2022/01/29 11:36:47;;;;;;;20.17;8.15;;;;;;;;;;10555614;28;20023;-72
2022/01/29 11:41:47;;;;;;;;;;;;;;;;;;10554572;28;20032;-72
2022/01/29 11:46:47;;;;;;;16.70;8.65;;;;;;;;;;10553652;28;19908;-72
2022/01/29 11:51:48;;;;;;;13.45;7.18;;;;;;;;;;10571272;28;20023;-71
2022/01/29 11:57:04;;;;;;;15.55;8.10;;;;;;;;;;10536779;28;20023;-71
2022/01/29 12:02:13;;;;;;;16.23;7.80;;;;;;;;;;10553836;28;20027;-73
2022/01/29 12:07:19;;;;;;;12.82;8.25;;;;;;;;;;10555209;28;20813;-72
2022/01/29 12:12:26;;;;;;;18.08;9.02;;;;;;;;;;10519126;28;20024;-72
2022/01/29 12:17:41;;;;;;;24.00;10.18;;;;;;;;;;10512588;28;20066;-76
2022/01/29 12:22:42;;;;;;;16.38;8.30;;;;;;;;;;10530456;28;20079;-76
2022/01/29 12:27:50;;;;;;;17.13;8.88;;;;;;;;;;10528145;28;20115;-71
2022/01/29 12:32:55;;;;;;;22.83;8.48;;;;;;;;;;10510743;28;20111;-75
2022/01/29 12:37:57;;;;;;;15.80;8.43;;;;;;;;;;10511803;28;20042;-77
2022/01/29 12:42:59;;;;;;;19.52;10.63;;;;;;;;;;10511491;28;20032;-75
2022/01/29 12:48:09;;;;;;;14.65;8.27;;;;;;;;;;10530131;28;20024;-73
2022/01/29 12:53:11;;;;;;;17.95;8.10;;;;;;;;;;10511512;28;20054;-71
2022/01/29 12:58:11;;;;;;;19.58;9.48;;;;;;;;;;10513301;28;20118;-72
2022/01/29 13:03:13;;;;;;;17.85;9.82;;;;;;;;;;10560359;28;20507;-75
2022/01/29 13:08:25;;;;;;;13.75;8.23;;;;;;;;;;10561943;28;20404;-76
2022/01/29 13:13:32;;;;;;;18.35;9.45;;;;;;;;;;10539997;28;20058;-74
2022/01/29 13:18:35;;;;;;;22.52;9.60;;;;;;;;;;10559187;28;20081;-75
2022/01/29 13:23:36;;;;;;;17.65;8.75;;;;;;;;;;10518030;28;20024;-71
2022/01/29 13:28:45;;;;;;;18.38;10.10;;;;;;;;;;10517510;28;20493;-74
2022/01/29 13:33:46;;;;;;;22.42;9.98;;;;;;;;;;10534522;28;20020;-71
2022/01/29 13:38:59;;;;;;;13.75;8.63;;;;;;;;;;10533947;28;20031;-76
2022/01/29 13:44:09;;;;;;;20.52;9.50;;;;;;;;;;10533972;28;20034;-71
2022/01/29 13:49:11;;;;;;;17.33;8.80;;;;;;;;;;10558917;28;20036;-71
2022/01/29 13:54:21;;;;;;;14.30;8.30;;;;;;;;;;10542382;28;20092;-79
2022/01/29 13:59:21;;;;;;;20.50;7.30;;;;;;;;;;10560193;28;20509;-72
2022/01/29 14:04:25;;;;;;;24.63;8.75;;;;;;;;;;10557973;28;20154;-76
2022/01/29 14:14:39;;;;;;;21.45;8.50;;;;;;;;;;10580346;28;20459;-75
2022/01/29 14:19:41;;;;;;;17.95;9.00;;;;;;;;;;10557968;28;20048;-76
2022/01/29 14:24:42;;;;;;;13.50;7.15;;;;;;;;;;10576133;28;20272;-76
2022/01/29 14:29:43;;;;;;;19.02;8.93;;;;;;;;;;10575977;28;20464;-74
2022/01/29 14:34:44;;;;;;;15.80;8.73;;;;;;;;;;10557270;28;20485;-75
2022/01/29 14:39:47;;;;;;;16.42;8.38;;;;;;;;;;10557871;28;20031;-76
2022/01/29 14:44:47;;;;;;;15.40;9.38;;;;;;;;;;10557687;28;20092;-75
2022/01/29 14:49:47;;;;;;;15.75;9.60;;;;;;;;;;10556009;28;20036;-69
2022/01/29 14:54:48;;;;;;;25.30;8.83;;;;;;;;;;10556092;28;20036;-72
2022/01/29 14:59:48;;;;;;;22.88;10.55;;;;;;;;;;10556896;28;20084;-73
2022/01/29 15:04:53;;;;;;;20.00;10.30;;;;;;;;;;10556064;28;20039;-72
2022/01/29 15:09:54;;;;;;;14.13;9.27;;;;;;;;;;10555386;28;20091;-72
2022/01/29 15:14:54;;;;;;;21.00;9.03;;;;;;;;;;10574180;28;20031;-71
2022/01/29 15:19:54;;;;;;;17.35;9.05;;;;;;;;;;10554911;28;20055;-71
2022/01/29 15:24:55;;;;;;;17.42;8.73;;;;;;;;;;10555981;28;20560;-71
2022/01/29 15:29:55;;;;;;;17.08;8.63;;;;;;;;;;10555737;28;20156;-76
2022/01/29 15:34:55;;;;;;;15.80;8.53;;;;;;;;;;10554552;28;20028;-72
2022/01/29 15:39:55;;;;;;;21.42;7.95;;;;;;;;;;10555220;28;20032;-72
2022/01/29 15:44:56;;;;;;;23.47;11.70;;;;;;;;;;10555628;28;20031;-74
2022/01/29 15:49:56;;;;;;;19.88;8.80;;;;;;;;;;10544902;28;20462;-75
2022/01/29 15:54:57;;;;;;;16.58;8.50;;;;;;;;;;10552908;28;20404;-71
2022/01/29 15:59:58;;;;;;;16.42;9.07;;;;;;;;;;10553173;28;20443;-71
2022/01/29 16:04:58;;;;;;;15.43;8.70;;;;;;;;;;10535643;28;20144;-72
2022/01/29 16:09:58;;;;;;;17.33;8.35;;;;;;;;;;10541960;28;20512;-74
2022/01/29 16:14:59;;;;;;;18.90;10.90;;;;;;;;;;10552697;28;20531;-72
2022/01/29 16:19:59;;;;;;;16.20;9.38;;;;;;;;;;10552488;28;20512;-71
2022/01/29 16:24:59;;;;;;;16.05;8.32;;;;;;;;;;10572268;28;20032;-75
2022/01/29 16:30:00;;;;;;;13.35;7.15;;;;;;;;;;10512932;28;20020;-72
2022/01/29 16:35:00;;;;;;;19.63;9.40;;;;;;;;;;10511102;28;20036;-77
2022/01/29 16:40:01;;;;;;;13.57;8.55;;;;;;;;;;10510736;28;20048;-73
2022/01/29 16:45:02;;;;;;;17.48;10.93;;;;;;;;;;10511139;28;20032;-75
2022/01/29 16:50:03;;;;;;;18.08;8.95;;;;;;;;;;10510745;28;20032;-71
2022/01/29 16:55:04;;;;;;;9.45;6.05;;;;;;;;;;10527585;28;20024;-72
2022/01/29 17:00:05;;;;;;;14.88;6.18;;;;;;;;;;10559777;28;20038;-75
2022/01/29 17:05:07;;;;;;;11.00;6.97;;;;;;;;;;10552307;28;20058;-72
2022/01/29 17:10:14;;;;;;;13.57;7.07;;;;;;;;;;10570400;28;20061;-72
2022/01/29 17:15:14;;;;;;;12.88;7.05;;;;;;;;;;10551832;28;20089;-71
2022/01/29 17:20:15;;;;;;;18.97;7.43;;;;;;;;;;10552320;28;20044;-72
2022/01/29 17:25:16;;;;;;;12.00;6.10;;;;;;;;;;10552111;28;20031;-71
2022/01/29 17:30:17;;;;;;;12.40;6.22;;;;;;;;;;10551632;28;20052;-73
2022/01/29 17:35:18;;;;;;;12.40;7.20;;;;;;;;;;10551599;28;20035;-72
2022/01/29 17:40:19;;;;;;;18.02;7.22;;;;;;;;;;10552482;28;20023;-73
2022/01/29 17:45:21;;;;;;;11.05;7.05;;;;;;;;;;10540188;28;20036;-71
2022/01/29 17:50:21;;;;;;;14.00;7.40;;;;;;;;;;10515734;28;20355;-75
2022/01/29 17:55:21;;;;;;;10.57;6.35;;;;;;;;;;10517293;28;20032;-71
2022/01/29 18:00:22;;;;;;;14.50;7.73;;;;;;;;;;10534685;28;20040;-75
2022/01/29 18:05:22;;;;;;;14.27;8.05;;;;;;;;;;10529955;28;20088;-74
2022/01/29 18:10:22;;;;;;;16.25;7.95;;;;;;;;;;10539573;28;20028;-70
2022/01/29 18:15:23;;;;;;;18.45;8.60;;;;;;;;;;10557838;28;20036;-72
2022/01/29 18:20:23;;;;;;;18.90;8.40;;;;;;;;;;10532530;28;20044;-71
2022/01/29 18:25:24;;;;;;;21.57;9.07;;;;;;;;;;10559313;28;20177;-73
2022/01/29 18:30:25;;;;;;;15.88;8.02;;;;;;;;;;10557354;28;20057;-76
2022/01/29 18:35:26;;;;;;;17.55;9.98;;;;;;;;;;10556156;28;20023;-71
2022/01/29 18:40:29;;;;;;;16.50;9.40;;;;;;;;;;10556521;28;20488;-71
2022/01/29 18:45:29;;;;;;;13.13;8.23;;;;;;;;;;10574970;28;20027;-72
2022/01/29 18:50:30;;;;;;;10.90;8.15;;;;;;;;;;10574501;28;20118;-72
2022/01/29 18:55:30;;;;;;;12.27;7.25;;;;;;;;;;10555248;28;20408;-71
2022/01/29 19:00:35;;;;;;;15.38;8.23;;;;;;;;;;10538860;28;20055;-72
2022/01/29 19:05:35;;;;;;;8.95;5.78;;;;;;;;;;10531054;28;20036;-71
2022/01/29 19:10:36;;;;;;;15.85;8.70;;;;;;;;;;10533016;28;20478;-72
2022/01/29 19:15:44;;;;;;;17.95;7.93;;;;;;;;;;10555829;28;20500;-72
2022/01/29 19:20:45;;;;;;;12.65;8.43;;;;;;;;;;10529558;28;20391;-72
2022/01/29 19:25:50;;;;;;;9.85;7.40;;;;;;;;;;10555358;28;20483;-72
2022/01/29 19:30:50;;;;;;;11.32;6.63;;;;;;;;;;10554841;28;20050;-72
2022/01/29 19:35:51;;;;;;;17.00;7.65;;;;;;;;;;10554971;28;20412;-71
2022/01/29 19:40:51;;;;;;;14.65;7.95;;;;;;;;;;10529580;28;20032;-72
2022/01/29 19:45:51;;;;;;;15.20;8.20;;;;;;;;;;10529002;28;20043;-72
2022/01/29 19:50:51;;;;;;;12.18;8.07;;;;;;;;;;10512222;28;20035;-72
2022/01/29 19:55:52;;;;;;;10.65;7.97;;;;;;;;;;10512201;28;20097;-72
2022/01/29 20:00:55;;;;;;;13.05;8.57;;;;;;;;;;10511554;28;20131;-71
2022/01/29 20:05:55;;;;;;;19.73;9.18;;;;;;;;;;10527254;28;20028;-72
2022/01/29 20:10:57;;;;;;;13.90;8.47;;;;;;;;;;10533311;28;20081;-78
2022/01/29 20:15:57;;;;;;;15.57;8.13;;;;;;;;;;10554026;28;20047;-72
2022/01/29 20:20:57;;;;;;;16.27;8.97;;;;;;;;;;10553006;28;20044;-73
2022/01/29 20:25:58;;;;;;;9.80;6.07;;;;;;;;;;10570072;28;20470;-70
2022/01/29 20:30:59;;;;;;;12.75;7.32;;;;;;;;;;10563405;28;20032;-70
2022/01/29 20:35:59;;;;;;;15.60;7.60;;;;;;;;;;10527375;28;20028;-71
2022/01/29 20:41:01;;;;;;;11.82;9.30;;;;;;;;;;10527583;28;20097;-71
2022/01/29 20:46:01;;;;;;;11.50;7.93;;;;;;;;;;10543300;28;20076;-71
2022/01/29 20:51:02;;;;;;;11.43;6.78;;;;;;;;;;10527786;28;20417;-72
2022/01/29 20:56:03;;;;;;;14.83;6.60;;;;;;;;;;10526644;28;20024;-71
2022/01/29 21:01:03;;;;;;;14.73;7.03;;;;;;;;;;10550845;28;20059;-71
2022/01/29 21:06:04;;;;;;;14.80;7.10;;;;;;;;;;10569643;28;20193;-74
2022/01/29 21:11:04;;;;;;;10.90;6.53;;;;;;;;;;10568985;28;20084;-77
2022/01/29 21:16:05;;;;;;;13.43;7.00;;;;;;;;;;10549057;28;20050;-72
2022/01/29 21:21:05;;;;;;;11.50;7.07;;;;;;;;;;10556882;28;20043;-73
2022/01/29 21:26:05;;;;;;;11.68;6.72;;;;;;;;;;10559497;28;20047;-75
2022/01/29 21:31:06;;;;;;;12.97;7.27;;;;;;;;;;10559813;28;20031;-73
2022/01/29 21:36:06;;;;;;;12.00;8.18;;;;;;;;;;10577491;28;20734;-72
2022/01/29 21:41:06;;;;;;;8.80;6.30;;;;;;;;;;10558816;28;20524;-73
2022/01/29 21:46:07;;;;;;;22.80;7.40;;;;;;;;;;10577699;28;20611;-75
2022/01/29 21:51:07;;;;;;;10.95;8.05;;;;;;;;;;10559668;28;20038;-75
2022/01/29 21:56:07;;;;;;;9.77;7.95;;;;;;;;;;10577016;28;20042;-72
2022/01/29 22:01:08;;;;;;;8.90;6.70;;;;;;;;;;10559589;28;20031;-72
2022/01/29 22:06:08;;;;;;;9.15;7.10;;;;;;;;;;10577281;28;20478;-71
2022/01/29 22:11:08;;;;;;;10.95;8.30;;;;;;;;;;10558040;28;20104;-71
2022/01/29 22:16:09;;;;;;;11.95;8.57;;;;;;;;;;10542692;28;20032;-72
2022/01/29 22:21:09;;;;;;;14.98;7.88;;;;;;;;;;10532751;28;20119;-71
2022/01/29 22:26:10;;;;;;;15.10;7.68;;;;;;;;;;10532384;28;20048;-76
2022/01/29 22:31:10;;;;;;;9.88;6.15;;;;;;;;;;10531471;28;20474;-72
2022/01/29 22:36:13;;;;;;;14.40;7.10;;;;;;;;;;10515248;28;20032;-74
2022/01/29 22:41:14;;;;;;;12.18;7.80;;;;;;;;;;10531884;28;20100;-70
2022/01/29 22:46:14;;;;;;;12.73;6.77;;;;;;;;;;10515535;28;20036;-72
2022/01/29 22:51:15;;;;;;;11.32;6.68;;;;;;;;;;10515820;28;20173;-72
2022/01/29 22:56:15;;;;;;;9.73;6.75;;;;;;;;;;10532834;28;20047;-71
2022/01/29 23:01:16;;;;;;;15.43;6.00;;;;;;;;;;10532253;28;20027;-72
2022/01/29 23:06:17;;;;;;;10.95;5.32;;;;;;;;;;10533168;28;20745;-71
2022/01/29 23:11:24;;;;;;;8.52;6.72;;;;;;;;;;10531657;28;20040;-71
2022/01/29 23:21:45;;;;;;;10.73;5.38;;;;;;;;;;10532374;28;20052;-71
2022/01/29 23:26:48;;;;;;;9.95;5.03;;;;;;;;;;10513729;28;20114;-71
2022/01/29 23:31:58;;;;;;;8.27;4.63;;;;;;;;;;10514041;28;20032;-73
2022/01/29 23:37:09;;;;;;;10.15;7.15;;;;;;;;;;10531816;28;20041;-73
2022/01/29 23:52:43;;;;;;;7.03;5.93;;;;;;;;;;10531865;28;20548;-72
2022/01/29 23:57:44;;;;;;;9.83;5.43;;;;;;;;;;10512993;28;20036;-75
